sensor_id;sensor_type;location;lat;lon;timestamp;P1;durP1;ratioP1;P2;durP2;ratioP2
80372;SDS011;69684;48.106;11.538;2023-05-07T00:51:09;6.95;;;4.30;;
80372;SDS011;69684;48.106;11.538;2023-05-07T01:59:47;6.95;;;4.10;;
80372;SDS011;69684;48.106;11.538;2023-05-07T02:42:44;8.55;;;4.57;;
80372;SDS011;69684;48.106;11.538;2023-05-07T03:23:37;8.55;;;4.28;;
80372;SDS011;69684;48.106;11.538;2023-05-07T05:21:30;5.22;;;3.20;;
80372;SDS011;69684;48.106;11.538;2023-05-07T05:54:16;2.22;;;1.98;;
80372;SDS011;69684;48.106;11.538;2023-05-07T06:37:32;3.13;;;2.80;;
80372;SDS011;69684;48.106;11.538;2023-05-07T07:09:26;3.35;;;2.78;;
80372;SDS011;69684;48.106;11.538;2023-05-07T07:12:09;3.00;;;2.60;;
80372;SDS011;69684;48.106;11.538;2023-05-07T07:17:56;2.50;;;2.30;;
80372;SDS011;69684;48.106;11.538;2023-05-07T07:23:40;2.88;;;2.30;;
80372;SDS011;69684;48.106;11.538;2023-05-07T07:26:12;2.80;;;1.75;;
80372;SDS011;69684;48.106;11.538;2023-05-07T07:29:03;2.17;;;1.98;;
80372;SDS011;69684;48.106;11.538;2023-05-07T07:31:50;3.20;;;2.00;;
80372;SDS011;69684;48.106;11.538;2023-05-07T07:34:21;2.67;;;2.20;;
80372;SDS011;69684;48.106;11.538;2023-05-07T07:36:56;2.78;;;2.33;;
80372;SDS011;69684;48.106;11.538;2023-05-07T07:39:33;4.50;;;2.50;;
80372;SDS011;69684;48.106;11.538;2023-05-07T07:42:02;3.03;;;2.40;;
80372;SDS011;69684;48.106;11.538;2023-05-07T07:44:44;2.63;;;2.13;;
80372;SDS011;69684;48.106;11.538;2023-05-07T07:47:24;4.88;;;2.70;;
80372;SDS011;69684;48.106;11.538;2023-05-07T07:49:56;4.88;;;2.50;;
80372;SDS011;69684;48.106;11.538;2023-05-07T07:52:22;2.15;;;1.85;;
80372;SDS011;69684;48.106;11.538;2023-05-07T07:54:56;3.33;;;2.33;;
80372;SDS011;69684;48.106;11.538;2023-05-07T07:57:28;3.50;;;2.65;;
80372;SDS011;69684;48.106;11.538;2023-05-07T07:59:54;4.30;;;2.47;;
80372;SDS011;69684;48.106;11.538;2023-05-07T08:02:20;3.53;;;2.92;;
80372;SDS011;69684;48.106;11.538;2023-05-07T08:04:46;2.78;;;2.30;;
80372;SDS011;69684;48.106;11.538;2023-05-07T08:07:12;2.72;;;2.47;;
80372;SDS011;69684;48.106;11.538;2023-05-07T08:09:38;2.35;;;2.00;;
80372;SDS011;69684;48.106;11.538;2023-05-07T08:12:07;2.55;;;1.98;;
80372;SDS011;69684;48.106;11.538;2023-05-07T08:14:33;3.17;;;2.22;;
80372;SDS011;69684;48.106;11.538;2023-05-07T08:16:59;2.10;;;1.90;;
80372;SDS011;69684;48.106;11.538;2023-05-07T08:19:25;4.03;;;2.13;;
80372;SDS011;69684;48.106;11.538;2023-05-07T08:21:51;2.58;;;2.10;;
80372;SDS011;69684;48.106;11.538;2023-05-07T08:24:18;4.03;;;2.00;;
80372;SDS011;69684;48.106;11.538;2023-05-07T08:26:44;3.60;;;2.38;;
80372;SDS011;69684;48.106;11.538;2023-05-07T08:29:10;2.33;;;2.00;;
80372;SDS011;69684;48.106;11.538;2023-05-07T08:31:36;1.92;;;1.80;;
80372;SDS011;69684;48.106;11.538;2023-05-07T08:34:04;2.42;;;2.17;;
80372;SDS011;69684;48.106;11.538;2023-05-07T08:36:31;2.15;;;1.98;;
80372;SDS011;69684;48.106;11.538;2023-05-07T08:38:57;2.47;;;2.28;;
80372;SDS011;69684;48.106;11.538;2023-05-07T08:41:23;3.88;;;2.33;;
80372;SDS011;69684;48.106;11.538;2023-05-07T08:43:50;3.65;;;2.10;;
80372;SDS011;69684;48.106;11.538;2023-05-07T08:46:20;2.70;;;2.50;;
80372;SDS011;69684;48.106;11.538;2023-05-07T08:48:49;3.53;;;2.70;;
80372;SDS011;69684;48.106;11.538;2023-05-07T08:51:16;3.33;;;2.05;;
80372;SDS011;69684;48.106;11.538;2023-05-07T08:53:43;3.60;;;2.40;;
80372;SDS011;69684;48.106;11.538;2023-05-07T08:56:09;4.07;;;2.15;;
80372;SDS011;69684;48.106;11.538;2023-05-07T08:58:35;3.63;;;2.45;;
80372;SDS011;69684;48.106;11.538;2023-05-07T09:01:09;3.00;;;2.65;;
80372;SDS011;69684;48.106;11.538;2023-05-07T09:03:38;3.05;;;2.72;;
80372;SDS011;69684;48.106;11.538;2023-05-07T09:06:04;3.40;;;2.30;;
80372;SDS011;69684;48.106;11.538;2023-05-07T09:08:32;3.35;;;2.70;;
80372;SDS011;69684;48.106;11.538;2023-05-07T09:10:58;2.88;;;1.90;;
80372;SDS011;69684;48.106;11.538;2023-05-07T09:13:24;2.92;;;2.00;;
80372;SDS011;69684;48.106;11.538;2023-05-07T09:15:50;4.38;;;2.17;;
80372;SDS011;69684;48.106;11.538;2023-05-07T09:18:16;2.60;;;2.10;;
80372;SDS011;69684;48.106;11.538;2023-05-07T09:20:42;2.60;;;2.33;;
80372;SDS011;69684;48.106;11.538;2023-05-07T09:23:08;2.88;;;2.17;;
80372;SDS011;69684;48.106;11.538;2023-05-07T09:25:35;2.30;;;2.10;;
80372;SDS011;69684;48.106;11.538;2023-05-07T09:28:02;2.25;;;2.05;;
80372;SDS011;69684;48.106;11.538;2023-05-07T09:30:31;2.67;;;2.00;;
80372;SDS011;69684;48.106;11.538;2023-05-07T09:33:03;2.20;;;2.00;;
80372;SDS011;69684;48.106;11.538;2023-05-07T09:35:29;2.35;;;2.15;;
80372;SDS011;69684;48.106;11.538;2023-05-07T09:37:56;3.35;;;2.20;;
80372;SDS011;69684;48.106;11.538;2023-05-07T09:42:55;2.63;;;2.42;;
80372;SDS011;69684;48.106;11.538;2023-05-07T09:45:29;3.20;;;3.00;;
80372;SDS011;69684;48.106;11.538;2023-05-07T09:47:58;2.45;;;2.25;;
80372;SDS011;69684;48.106;11.538;2023-05-07T09:50:28;2.38;;;2.03;;
80372;SDS011;69684;48.106;11.538;2023-05-07T09:52:55;2.25;;;2.08;;
80372;SDS011;69684;48.106;11.538;2023-05-07T09:55:22;3.28;;;2.42;;
80372;SDS011;69684;48.106;11.538;2023-05-07T09:57:52;2.63;;;2.42;;
80372;SDS011;69684;48.106;11.538;2023-05-07T10:00:19;2.50;;;2.30;;
80372;SDS011;69684;48.106;11.538;2023-05-07T10:02:49;3.20;;;2.67;;
80372;SDS011;69684;48.106;11.538;2023-05-07T10:05:19;3.25;;;2.50;;
80372;SDS011;69684;48.106;11.538;2023-05-07T10:07:51;2.60;;;2.40;;
80372;SDS011;69684;48.106;11.538;2023-05-07T10:10:18;2.45;;;1.77;;
80372;SDS011;69684;48.106;11.538;2023-05-07T10:12:45;2.55;;;2.35;;
80372;SDS011;69684;48.106;11.538;2023-05-07T10:15:11;3.20;;;2.90;;
80372;SDS011;69684;48.106;11.538;2023-05-07T10:17:38;3.13;;;2.83;;
80372;SDS011;69684;48.106;11.538;2023-05-07T10:20:05;3.88;;;3.35;;
80372;SDS011;69684;48.106;11.538;2023-05-07T10:22:33;2.22;;;2.13;;
80372;SDS011;69684;48.106;11.538;2023-05-07T10:25:06;3.30;;;3.00;;
80372;SDS011;69684;48.106;11.538;2023-05-07T10:27:33;3.47;;;2.50;;
80372;SDS011;69684;48.106;11.538;2023-05-07T10:35:09;3.10;;;2.90;;
80372;SDS011;69684;48.106;11.538;2023-05-07T10:37:36;2.92;;;2.80;;
80372;SDS011;69684;48.106;11.538;2023-05-07T10:40:02;3.38;;;3.08;;
80372;SDS011;69684;48.106;11.538;2023-05-07T10:42:32;2.97;;;2.78;;
80372;SDS011;69684;48.106;11.538;2023-05-07T10:45:00;3.75;;;2.92;;
80372;SDS011;69684;48.106;11.538;2023-05-07T10:50:39;4.05;;;2.75;;
80372;SDS011;69684;48.106;11.538;2023-05-07T10:55:50;2.47;;;2.28;;
80372;SDS011;69684;48.106;11.538;2023-05-07T11:00:48;3.85;;;2.50;;
80372;SDS011;69684;48.106;11.538;2023-05-07T11:03:23;2.72;;;2.35;;
80372;SDS011;69684;48.106;11.538;2023-05-07T11:11:36;3.15;;;2.85;;
80372;SDS011;69684;48.106;11.538;2023-05-07T11:14:07;3.00;;;2.72;;
80372;SDS011;69684;48.106;11.538;2023-05-07T11:16:52;3.30;;;2.25;;
80372;SDS011;69684;48.106;11.538;2023-05-07T11:19:54;2.25;;;2.05;;
80372;SDS011;69684;48.106;11.538;2023-05-07T11:31:38;3.97;;;3.33;;
80372;SDS011;69684;48.106;11.538;2023-05-07T11:37:43;3.72;;;3.47;;
80372;SDS011;69684;48.106;11.538;2023-05-07T11:40:31;3.92;;;2.53;;
80372;SDS011;69684;48.106;11.538;2023-05-07T11:55:48;4.38;;;4.07;;
80372;SDS011;69684;48.106;11.538;2023-05-07T11:58:35;4.90;;;4.50;;
80372;SDS011;69684;48.106;11.538;2023-05-07T12:01:23;4.03;;;3.72;;
80372;SDS011;69684;48.106;11.538;2023-05-07T12:04:02;4.10;;;3.72;;
80372;SDS011;69684;48.106;11.538;2023-05-07T12:06:49;3.97;;;3.67;;
80372;SDS011;69684;48.106;11.538;2023-05-07T12:09:28;4.68;;;4.38;;
80372;SDS011;69684;48.106;11.538;2023-05-07T12:11:57;4.82;;;4.40;;
80372;SDS011;69684;48.106;11.538;2023-05-07T12:14:29;4.55;;;4.20;;
80372;SDS011;69684;48.106;11.538;2023-05-07T12:17:00;4.75;;;4.35;;
80372;SDS011;69684;48.106;11.538;2023-05-07T12:19:36;4.07;;;3.80;;
80372;SDS011;69684;48.106;11.538;2023-05-07T12:22:02;3.75;;;3.53;;
80372;SDS011;69684;48.106;11.538;2023-05-07T12:24:44;4.93;;;4.57;;
80372;SDS011;69684;48.106;11.538;2023-05-07T12:32:39;5.53;;;3.90;;
80372;SDS011;69684;48.106;11.538;2023-05-07T12:35:32;4.18;;;3.80;;
80372;SDS011;69684;48.106;11.538;2023-05-07T12:38:08;4.63;;;4.22;;
80372;SDS011;69684;48.106;11.538;2023-05-07T12:40:44;4.03;;;3.72;;
80372;SDS011;69684;48.106;11.538;2023-05-07T12:43:24;5.30;;;3.63;;
80372;SDS011;69684;48.106;11.538;2023-05-07T12:45:54;4.38;;;3.97;;
80372;SDS011;69684;48.106;11.538;2023-05-07T12:48:29;3.75;;;3.45;;
80372;SDS011;69684;48.106;11.538;2023-05-07T12:51:01;3.92;;;3.70;;
80372;SDS011;69684;48.106;11.538;2023-05-07T12:53:43;3.35;;;3.15;;
80372;SDS011;69684;48.106;11.538;2023-05-07T12:56:09;3.83;;;3.60;;
80372;SDS011;69684;48.106;11.538;2023-05-07T13:01:57;4.85;;;4.55;;
80372;SDS011;69684;48.106;11.538;2023-05-07T13:04:38;3.50;;;3.20;;
80372;SDS011;69684;48.106;11.538;2023-05-07T13:07:38;4.47;;;4.07;;
80372;SDS011;69684;48.106;11.538;2023-05-07T13:42:21;5.82;;;2.58;;
80372;SDS011;69684;48.106;11.538;2023-05-07T13:44:49;3.35;;;3.15;;
80372;SDS011;69684;48.106;11.538;2023-05-07T13:47:27;3.15;;;2.83;;
80372;SDS011;69684;48.106;11.538;2023-05-07T13:49:53;4.63;;;4.32;;
80372;SDS011;69684;48.106;11.538;2023-05-07T13:52:53;3.40;;;3.20;;
80372;SDS011;69684;48.106;11.538;2023-05-07T13:58:19;3.95;;;2.75;;
80372;SDS011;69684;48.106;11.538;2023-05-07T14:01:08;3.40;;;3.03;;
80372;SDS011;69684;48.106;11.538;2023-05-07T14:03:40;3.10;;;2.95;;
80372;SDS011;69684;48.106;11.538;2023-05-07T14:06:18;4.35;;;2.70;;
80372;SDS011;69684;48.106;11.538;2023-05-07T14:08:57;3.38;;;3.17;;
80372;SDS011;69684;48.106;11.538;2023-05-07T14:11:52;2.70;;;2.50;;
80372;SDS011;69684;48.106;11.538;2023-05-07T14:20:23;2.65;;;2.45;;
80372;SDS011;69684;48.106;11.538;2023-05-07T14:22:55;2.60;;;2.35;;
80372;SDS011;69684;48.106;11.538;2023-05-07T14:25:36;5.40;;;2.60;;
80372;SDS011;69684;48.106;11.538;2023-05-07T14:28:19;2.75;;;2.50;;
80372;SDS011;69684;48.106;11.538;2023-05-07T14:30:47;3.45;;;2.40;;
80372;SDS011;69684;48.106;11.538;2023-05-07T14:33:16;3.53;;;3.33;;
80372;SDS011;69684;48.106;11.538;2023-05-07T14:35:59;2.80;;;2.60;;
80372;SDS011;69684;48.106;11.538;2023-05-07T14:38:31;2.95;;;2.72;;
80372;SDS011;69684;48.106;11.538;2023-05-07T14:43:52;3.05;;;2.85;;
80372;SDS011;69684;48.106;11.538;2023-05-07T14:46:51;4.03;;;3.70;;
80372;SDS011;69684;48.106;11.538;2023-05-07T14:49:23;3.45;;;3.15;;
80372;SDS011;69684;48.106;11.538;2023-05-07T14:54:55;3.13;;;2.83;;
80372;SDS011;69684;48.106;11.538;2023-05-07T14:57:35;3.88;;;2.70;;
80372;SDS011;69684;48.106;11.538;2023-05-07T15:06:58;3.30;;;3.00;;
80372;SDS011;69684;48.106;11.538;2023-05-07T15:12:43;3.38;;;3.17;;
80372;SDS011;69684;48.106;11.538;2023-05-07T15:15:12;3.85;;;3.55;;
80372;SDS011;69684;48.106;11.538;2023-05-07T15:27:03;3.63;;;3.03;;
80372;SDS011;69684;48.106;11.538;2023-05-07T15:56:37;3.50;;;2.50;;
80372;SDS011;69684;48.106;11.538;2023-05-07T16:05:45;2.67;;;2.20;;
80372;SDS011;69684;48.106;11.538;2023-05-07T16:08:16;2.92;;;2.60;;
80372;SDS011;69684;48.106;11.538;2023-05-07T16:13:43;2.47;;;1.90;;
80372;SDS011;69684;48.106;11.538;2023-05-07T16:16:30;2.30;;;2.10;;
80372;SDS011;69684;48.106;11.538;2023-05-07T16:25:33;2.17;;;2.00;;
80372;SDS011;69684;48.106;11.538;2023-05-07T16:31:22;2.33;;;1.90;;
80372;SDS011;69684;48.106;11.538;2023-05-07T16:37:12;2.60;;;1.90;;
80372;SDS011;69684;48.106;11.538;2023-05-07T16:39:55;2.20;;;2.00;;
80372;SDS011;69684;48.106;11.538;2023-05-07T16:42:49;2.08;;;1.88;;
80372;SDS011;69684;48.106;11.538;2023-05-07T16:45:39;2.30;;;1.98;;
80372;SDS011;69684;48.106;11.538;2023-05-07T16:57:55;1.80;;;1.70;;
80372;SDS011;69684;48.106;11.538;2023-05-07T17:00:42;1.95;;;1.83;;
80372;SDS011;69684;48.106;11.538;2023-05-07T17:03:14;2.22;;;1.70;;
80372;SDS011;69684;48.106;11.538;2023-05-07T17:05:58;2.38;;;2.00;;
80372;SDS011;69684;48.106;11.538;2023-05-07T17:26:22;3.70;;;1.67;;
80372;SDS011;69684;48.106;11.538;2023-05-07T17:29:20;3.13;;;2.15;;
80372;SDS011;69684;48.106;11.538;2023-05-07T17:35:43;2.58;;;1.98;;
80372;SDS011;69684;48.106;11.538;2023-05-07T17:38:44;9.75;;;6.18;;
80372;SDS011;69684;48.106;11.538;2023-05-07T17:44:38;2.95;;;2.00;;
80372;SDS011;69684;48.106;11.538;2023-05-07T17:53:05;2.40;;;1.67;;
80372;SDS011;69684;48.106;11.538;2023-05-07T18:01:51;1.90;;;1.60;;
80372;SDS011;69684;48.106;11.538;2023-05-07T18:04:36;2.70;;;1.60;;
80372;SDS011;69684;48.106;11.538;2023-05-07T18:10:56;3.78;;;1.70;;
80372;SDS011;69684;48.106;11.538;2023-05-07T18:17:10;2.15;;;1.90;;
80372;SDS011;69684;48.106;11.538;2023-05-07T18:19:58;2.25;;;1.80;;
80372;SDS011;69684;48.106;11.538;2023-05-07T18:27:58;3.95;;;1.70;;
80372;SDS011;69684;48.106;11.538;2023-05-07T18:30:23;2.42;;;1.60;;
80372;SDS011;69684;48.106;11.538;2023-05-07T18:32:49;2.15;;;1.95;;
80372;SDS011;69684;48.106;11.538;2023-05-07T18:35:15;2.55;;;1.70;;
80372;SDS011;69684;48.106;11.538;2023-05-07T18:37:41;2.08;;;1.70;;
80372;SDS011;69684;48.106;11.538;2023-05-07T18:40:07;2.50;;;1.80;;
80372;SDS011;69684;48.106;11.538;2023-05-07T18:42:33;3.08;;;1.70;;
80372;SDS011;69684;48.106;11.538;2023-05-07T18:44:59;2.65;;;2.03;;
80372;SDS011;69684;48.106;11.538;2023-05-07T18:47:25;2.22;;;1.67;;
80372;SDS011;69684;48.106;11.538;2023-05-07T18:49:51;1.80;;;1.60;;
80372;SDS011;69684;48.106;11.538;2023-05-07T18:52:18;4.20;;;1.77;;
80372;SDS011;69684;48.106;11.538;2023-05-07T18:54:46;1.73;;;1.58;;
80372;SDS011;69684;48.106;11.538;2023-05-07T18:57:12;2.47;;;1.85;;
80372;SDS011;69684;48.106;11.538;2023-05-07T18:59:38;2.30;;;1.58;;
80372;SDS011;69684;48.106;11.538;2023-05-07T19:02:04;2.10;;;1.90;;
80372;SDS011;69684;48.106;11.538;2023-05-07T19:04:30;2.80;;;1.77;;
80372;SDS011;69684;48.106;11.538;2023-05-07T19:06:56;2.90;;;1.55;;
80372;SDS011;69684;48.106;11.538;2023-05-07T19:09:22;3.38;;;2.03;;
80372;SDS011;69684;48.106;11.538;2023-05-07T19:11:48;2.50;;;1.83;;
80372;SDS011;69684;48.106;11.538;2023-05-07T19:14:14;1.63;;;1.52;;
80372;SDS011;69684;48.106;11.538;2023-05-07T19:16:41;2.70;;;1.90;;
80372;SDS011;69684;48.106;11.538;2023-05-07T19:19:07;3.30;;;1.65;;
80372;SDS011;69684;48.106;11.538;2023-05-07T19:21:33;2.13;;;1.50;;
80372;SDS011;69684;48.106;11.538;2023-05-07T19:23:59;2.92;;;1.95;;
80372;SDS011;69684;48.106;11.538;2023-05-07T19:26:25;2.60;;;1.80;;
80372;SDS011;69684;48.106;11.538;2023-05-07T19:28:51;2.85;;;1.80;;
80372;SDS011;69684;48.106;11.538;2023-05-07T19:31:18;1.85;;;1.75;;
80372;SDS011;69684;48.106;11.538;2023-05-07T19:33:45;2.75;;;1.70;;
80372;SDS011;69684;48.106;11.538;2023-05-07T19:36:11;2.03;;;1.60;;
80372;SDS011;69684;48.106;11.538;2023-05-07T19:38:37;1.58;;;1.48;;
80372;SDS011;69684;48.106;11.538;2023-05-07T19:41:03;2.42;;;1.80;;
80372;SDS011;69684;48.106;11.538;2023-05-07T19:43:30;2.00;;;1.80;;
80372;SDS011;69684;48.106;11.538;2023-05-07T19:46:02;2.13;;;1.92;;
80372;SDS011;69684;48.106;11.538;2023-05-07T19:48:28;3.42;;;2.47;;
80372;SDS011;69684;48.106;11.538;2023-05-07T19:50:54;2.95;;;2.10;;
80372;SDS011;69684;48.106;11.538;2023-05-07T19:53:20;2.38;;;2.08;;
80372;SDS011;69684;48.106;11.538;2023-05-07T19:55:46;3.50;;;2.47;;
80372;SDS011;69684;48.106;11.538;2023-05-07T19:58:12;5.00;;;2.40;;
80372;SDS011;69684;48.106;11.538;2023-05-07T20:00:40;4.38;;;2.70;;
80372;SDS011;69684;48.106;11.538;2023-05-07T20:03:06;3.65;;;2.97;;
80372;SDS011;69684;48.106;11.538;2023-05-07T20:05:32;3.88;;;2.80;;
80372;SDS011;69684;48.106;11.538;2023-05-07T20:07:58;4.57;;;3.10;;
80372;SDS011;69684;48.106;11.538;2023-05-07T20:10:26;4.15;;;3.22;;
80372;SDS011;69684;48.106;11.538;2023-05-07T20:12:52;5.50;;;3.40;;
80372;SDS011;69684;48.106;11.538;2023-05-07T20:15:18;3.50;;;2.80;;
80372;SDS011;69684;48.106;11.538;2023-05-07T20:17:44;4.57;;;3.33;;
80372;SDS011;69684;48.106;11.538;2023-05-07T20:20:10;4.28;;;3.15;;
80372;SDS011;69684;48.106;11.538;2023-05-07T20:22:36;5.13;;;3.92;;
80372;SDS011;69684;48.106;11.538;2023-05-07T20:25:02;4.78;;;3.50;;
80372;SDS011;69684;48.106;11.538;2023-05-07T20:27:30;5.13;;;3.72;;
80372;SDS011;69684;48.106;11.538;2023-05-07T20:29:58;6.90;;;3.63;;
80372;SDS011;69684;48.106;11.538;2023-05-07T20:32:24;5.68;;;3.67;;
80372;SDS011;69684;48.106;11.538;2023-05-07T20:34:50;5.38;;;3.63;;
80372;SDS011;69684;48.106;11.538;2023-05-07T20:37:16;5.53;;;3.35;;
80372;SDS011;69684;48.106;11.538;2023-05-07T20:39:42;4.22;;;3.28;;
80372;SDS011;69684;48.106;11.538;2023-05-07T20:42:08;4.82;;;3.60;;
80372;SDS011;69684;48.106;11.538;2023-05-07T20:44:35;6.10;;;3.42;;
80372;SDS011;69684;48.106;11.538;2023-05-07T20:47:01;5.95;;;4.20;;
80372;SDS011;69684;48.106;11.538;2023-05-07T20:49:27;5.45;;;3.95;;
80372;SDS011;69684;48.106;11.538;2023-05-07T20:51:53;7.47;;;3.78;;
80372;SDS011;69684;48.106;11.538;2023-05-07T20:54:19;4.90;;;3.70;;
80372;SDS011;69684;48.106;11.538;2023-05-07T20:56:46;5.68;;;3.90;;
80372;SDS011;69684;48.106;11.538;2023-05-07T20:59:13;4.53;;;3.88;;
80372;SDS011;69684;48.106;11.538;2023-05-07T21:01:39;6.35;;;3.90;;
80372;SDS011;69684;48.106;11.538;2023-05-07T21:04:06;4.78;;;3.83;;
80372;SDS011;69684;48.106;11.538;2023-05-07T21:06:32;7.30;;;4.32;;
80372;SDS011;69684;48.106;11.538;2023-05-07T21:08:58;7.25;;;4.50;;
80372;SDS011;69684;48.106;11.538;2023-05-07T21:11:24;4.60;;;3.53;;
80372;SDS011;69684;48.106;11.538;2023-05-07T21:13:50;6.38;;;4.13;;
80372;SDS011;69684;48.106;11.538;2023-05-07T21:16:16;6.95;;;4.55;;
80372;SDS011;69684;48.106;11.538;2023-05-07T21:18:43;7.43;;;4.55;;
80372;SDS011;69684;48.106;11.538;2023-05-07T21:21:09;5.05;;;3.85;;
80372;SDS011;69684;48.106;11.538;2023-05-07T21:23:35;6.15;;;4.25;;
80372;SDS011;69684;48.106;11.538;2023-05-07T21:26:01;6.50;;;4.00;;
80372;SDS011;69684;48.106;11.538;2023-05-07T21:28:27;6.40;;;4.07;;
80372;SDS011;69684;48.106;11.538;2023-05-07T21:30:53;5.95;;;3.78;;
80372;SDS011;69684;48.106;11.538;2023-05-07T21:33:19;6.28;;;4.20;;
80372;SDS011;69684;48.106;11.538;2023-05-07T21:35:45;6.72;;;4.40;;
80372;SDS011;69684;48.106;11.538;2023-05-07T21:38:11;6.72;;;4.00;;
80372;SDS011;69684;48.106;11.538;2023-05-07T21:40:37;7.25;;;4.30;;
80372;SDS011;69684;48.106;11.538;2023-05-07T21:43:09;7.15;;;4.30;;
80372;SDS011;69684;48.106;11.538;2023-05-07T21:45:35;5.75;;;4.35;;
80372;SDS011;69684;48.106;11.538;2023-05-07T21:48:03;7.15;;;4.35;;
80372;SDS011;69684;48.106;11.538;2023-05-07T21:50:32;7.53;;;4.80;;
80372;SDS011;69684;48.106;11.538;2023-05-07T21:52:58;6.53;;;4.53;;
80372;SDS011;69684;48.106;11.538;2023-05-07T21:55:24;5.85;;;4.47;;
80372;SDS011;69684;48.106;11.538;2023-05-07T21:57:53;7.60;;;4.53;;
80372;SDS011;69684;48.106;11.538;2023-05-07T22:00:19;7.93;;;4.93;;
80372;SDS011;69684;48.106;11.538;2023-05-07T22:02:46;6.55;;;4.78;;
80372;SDS011;69684;48.106;11.538;2023-05-07T22:05:12;8.63;;;4.78;;
80372;SDS011;69684;48.106;11.538;2023-05-07T22:07:38;7.63;;;4.88;;
80372;SDS011;69684;48.106;11.538;2023-05-07T22:10:04;6.93;;;4.65;;
80372;SDS011;69684;48.106;11.538;2023-05-07T22:12:33;6.97;;;4.88;;
80372;SDS011;69684;48.106;11.538;2023-05-07T22:15:01;8.55;;;5.03;;
80372;SDS011;69684;48.106;11.538;2023-05-07T22:17:27;7.05;;;4.78;;
80372;SDS011;69684;48.106;11.538;2023-05-07T22:19:53;7.47;;;5.20;;
80372;SDS011;69684;48.106;11.538;2023-05-07T22:22:22;7.28;;;5.07;;
80372;SDS011;69684;48.106;11.538;2023-05-07T22:24:48;6.85;;;4.70;;
80372;SDS011;69684;48.106;11.538;2023-05-07T22:27:14;6.88;;;4.43;;
80372;SDS011;69684;48.106;11.538;2023-05-07T22:29:40;8.65;;;4.75;;
80372;SDS011;69684;48.106;11.538;2023-05-07T22:32:06;10.65;;;5.28;;
80372;SDS011;69684;48.106;11.538;2023-05-07T22:34:32;7.95;;;5.13;;
80372;SDS011;69684;48.106;11.538;2023-05-07T22:36:58;9.63;;;5.35;;
80372;SDS011;69684;48.106;11.538;2023-05-07T22:39:24;8.55;;;5.55;;
80372;SDS011;69684;48.106;11.538;2023-05-07T22:41:50;9.18;;;5.63;;
80372;SDS011;69684;48.106;11.538;2023-05-07T22:44:16;8.15;;;5.30;;
80372;SDS011;69684;48.106;11.538;2023-05-07T22:46:42;8.80;;;5.55;;
80372;SDS011;69684;48.106;11.538;2023-05-07T22:49:08;8.75;;;5.03;;
80372;SDS011;69684;48.106;11.538;2023-05-07T22:51:34;8.73;;;5.40;;
80372;SDS011;69684;48.106;11.538;2023-05-07T22:54:00;8.45;;;5.45;;
80372;SDS011;69684;48.106;11.538;2023-05-07T22:56:26;10.25;;;6.47;;
80372;SDS011;69684;48.106;11.538;2023-05-07T22:58:52;7.30;;;4.93;;
80372;SDS011;69684;48.106;11.538;2023-05-07T23:01:21;7.63;;;5.00;;
80372;SDS011;69684;48.106;11.538;2023-05-07T23:03:47;7.85;;;5.05;;
80372;SDS011;69684;48.106;11.538;2023-05-07T23:06:13;7.45;;;4.65;;
80372;SDS011;69684;48.106;11.538;2023-05-07T23:08:42;7.60;;;5.25;;
80372;SDS011;69684;48.106;11.538;2023-05-07T23:11:08;8.38;;;5.03;;
80372;SDS011;69684;48.106;11.538;2023-05-07T23:13:34;7.50;;;5.15;;
80372;SDS011;69684;48.106;11.538;2023-05-07T23:16:00;8.27;;;5.07;;
80372;SDS011;69684;48.106;11.538;2023-05-07T23:18:26;6.93;;;4.72;;
80372;SDS011;69684;48.106;11.538;2023-05-07T23:20:54;8.43;;;5.18;;
80372;SDS011;69684;48.106;11.538;2023-05-07T23:23:20;8.55;;;4.88;;
80372;SDS011;69684;48.106;11.538;2023-05-07T23:25:46;8.65;;;5.03;;
80372;SDS011;69684;48.106;11.538;2023-05-07T23:28:12;8.20;;;4.65;;
80372;SDS011;69684;48.106;11.538;2023-05-07T23:30:38;8.05;;;4.75;;
80372;SDS011;69684;48.106;11.538;2023-05-07T23:33:04;8.35;;;5.13;;
80372;SDS011;69684;48.106;11.538;2023-05-07T23:35:30;7.90;;;4.65;;
80372;SDS011;69684;48.106;11.538;2023-05-07T23:37:57;8.07;;;4.78;;
80372;SDS011;69684;48.106;11.538;2023-05-07T23:40:23;8.52;;;4.80;;
80372;SDS011;69684;48.106;11.538;2023-05-07T23:42:49;6.95;;;4.65;;
80372;SDS011;69684;48.106;11.538;2023-05-07T23:45:15;6.63;;;4.45;;
80372;SDS011;69684;48.106;11.538;2023-05-07T23:47:41;8.07;;;4.72;;
80372;SDS011;69684;48.106;11.538;2023-05-07T23:50:07;7.18;;;4.80;;
80372;SDS011;69684;48.106;11.538;2023-05-07T23:52:33;9.07;;;5.22;;
80372;SDS011;69684;48.106;11.538;2023-05-07T23:54:59;7.28;;;5.13;;
80372;SDS011;69684;48.106;11.538;2023-05-07T23:57:25;7.78;;;4.82;;
80372;SDS011;69684;48.106;11.538;2023-05-07T23:59:52;8.38;;;5.03;;
